Time;durP1;ratioP1;P1;durP2;ratioP2;P2;SDS_P1;SDS_P2;PMS_P1;PMS_P2;Temp;Humidity;BMP_temperature;BMP_pressure;BME280_temperature;BME280_humidity;BME280_pressure;Samples;Min_cycle;Max_cycle;Signal;HPM_P1;HPM_P2
2021/03/10 00:00:10;;;;;;;6.82;5.65;;;2.40;98.00;;;;;;5017477;28;20144;-70
2021/03/10 00:02:36;;;;;;;7.28;6.00;;;2.40;98.00;;;;;;5030953;28;20485;-70
2021/03/10 00:05:08;;;;;;;6.63;5.15;;;2.50;98.10;;;;;;5033121;28;20477;-70
2021/03/10 00:07:35;;;;;;;7.05;6.03;;;2.50;98.20;;;;;;5035424;28;20049;-70
2021/03/10 00:10:02;;;;;;;9.00;6.38;;;2.50;98.20;;;;;;5029973;28;20477;-70
2021/03/10 00:12:28;;;;;;;8.48;6.30;;;2.50;98.30;;;;;;5018720;28;20048;-70
2021/03/10 00:14:55;;;;;;;9.10;5.85;;;2.50;98.30;;;;;;5005138;28;20064;-70
2021/03/10 00:17:21;;;;;;;9.90;6.15;;;2.50;98.40;;;;;;5010797;28;20049;-70
2021/03/10 00:19:47;;;;;;;9.30;5.78;;;2.50;98.40;;;;;;5020398;28;20053;-70
2021/03/10 00:22:15;;;;;;;7.85;6.03;;;2.50;98.50;;;;;;5019079;28;20050;-70
2021/03/10 00:24:41;;;;;;;7.93;6.78;;;2.50;98.50;;;;;;5010024;28;20132;-70
2021/03/10 00:27:08;;;;;;;8.95;6.63;;;2.50;98.60;;;;;;5016980;28;20042;-70
2021/03/10 00:29:34;;;;;;;11.63;7.45;;;2.50;98.60;;;;;;5012632;28;20046;-70
2021/03/10 00:32:01;;;;;;;12.32;7.88;;;2.50;98.70;;;;;;5012474;28;20064;-70
2021/03/10 00:34:27;;;;;;;11.45;7.47;;;2.50;98.70;;;;;;5021367;28;20137;-70
2021/03/10 00:36:53;;;;;;;9.07;7.60;;;2.50;98.80;;;;;;5010644;28;20042;-70
2021/03/10 00:39:20;;;;;;;10.52;7.95;;;2.60;98.90;;;;;;5027771;28;20049;-70
2021/03/10 00:41:46;;;;;;;11.05;7.28;;;2.60;98.90;;;;;;5011384;28;20507;-70
2021/03/10 00:44:12;;;;;;;10.20;7.03;;;2.60;99.00;;;;;;5016735;28;20125;-70
2021/03/10 00:46:38;;;;;;;7.93;6.25;;;2.60;98.90;;;;;;5009723;28;20042;-70
2021/03/10 00:49:05;;;;;;;8.80;6.55;;;2.60;98.90;;;;;;5014098;28;20058;-70
2021/03/10 00:51:31;;;;;;;8.32;5.78;;;2.60;98.90;;;;;;5016735;28;20065;-70
2021/03/10 00:53:57;;;;;;;10.48;6.15;;;2.50;98.80;;;;;;5035001;28;20048;-70
2021/03/10 00:56:23;;;;;;;7.80;5.38;;;2.50;98.80;;;;;;5017082;28;20056;-69
2021/03/10 00:58:50;;;;;;;8.02;5.90;;;2.50;98.70;;;;;;5009787;28;20052;-70
2021/03/10 01:01:17;;;;;;;8.25;6.57;;;2.40;98.70;;;;;;5036288;28;20453;-69
2021/03/10 01:03:43;;;;;;;8.00;5.82;;;2.40;98.60;;;;;;5011880;28;20713;-70
2021/03/10 01:06:10;;;;;;;9.15;6.13;;;2.40;98.60;;;;;;5003699;28;20128;-70
2021/03/10 01:08:36;;;;;;;8.82;6.32;;;2.40;98.60;;;;;;5037587;28;20056;-70
2021/03/10 01:11:02;;;;;;;10.23;6.95;;;2.40;98.50;;;;;;5008755;28;20045;-70
2021/03/10 01:13:29;;;;;;;7.43;6.47;;;2.30;98.50;;;;;;5014340;28;20053;-70
2021/03/10 01:15:55;;;;;;;8.02;6.35;;;2.30;98.50;;;;;;5012486;28;20479;-70
2021/03/10 01:18:21;;;;;;;10.38;6.55;;;2.30;98.40;;;;;;5021550;28;20074;-70
2021/03/10 01:20:47;;;;;;;9.07;6.93;;;2.30;98.40;;;;;;5055639;28;20410;-70
2021/03/10 01:23:14;;;;;;;9.77;7.35;;;2.30;98.40;;;;;;5009864;28;20046;-70
2021/03/10 01:25:40;;;;;;;9.75;7.00;;;2.30;98.40;;;;;;5007592;28;20049;-70
2021/03/10 01:28:06;;;;;;;9.40;6.35;;;2.30;98.50;;;;;;5018593;28;20147;-70
2021/03/10 01:30:32;;;;;;;10.68;6.65;;;2.20;98.50;;;;;;5043559;28;20046;-69
2021/03/10 01:32:59;;;;;;;9.93;6.25;;;2.20;98.60;;;;;;5036734;28;20040;-70
2021/03/10 01:35:26;;;;;;;11.13;7.30;;;2.20;98.60;;;;;;5023699;28;20057;-70
2021/03/10 01:37:52;;;;;;;10.63;7.35;;;2.20;98.70;;;;;;5009037;28;20133;-70
2021/03/10 01:40:19;;;;;;;8.93;6.30;;;2.10;98.70;;;;;;5006694;28;20042;-70
2021/03/10 01:42:46;;;;;;;9.40;6.78;;;2.10;98.80;;;;;;5024866;28;20055;-70
2021/03/10 01:45:14;;;;;;;10.65;7.00;;;2.10;98.90;;;;;;5014588;28;20042;-70
2021/03/10 01:47:42;;;;;;;;;;;2.20;99.00;;;;;;5018940;28;20049;-70
2021/03/10 01:50:09;;;;;;;10.27;6.90;;;2.20;99.00;;;;;;5025480;28;19921;-70
2021/03/10 01:52:36;;;;;;;10.07;6.75;;;2.20;99.00;;;;;;5014321;28;20103;-70
2021/03/10 01:55:04;;;;;;;8.32;6.10;;;2.20;99.10;;;;;;5014312;28;20102;-70
2021/03/10 01:57:30;;;;;;;10.80;7.30;;;2.20;99.10;;;;;;5018689;28;20053;-70
2021/03/10 01:59:57;;;;;;;9.80;7.03;;;2.20;99.10;;;;;;5028560;28;20049;-70
2021/03/10 02:02:24;;;;;;;11.07;7.35;;;2.20;99.20;;;;;;5035732;28;20050;-70
2021/03/10 02:04:50;;;;;;;9.77;7.88;;;2.20;99.30;;;;;;5007996;28;20526;-70
2021/03/10 02:07:31;;;;;;;11.60;9.00;;;2.20;99.30;;;;;;5015440;28;20042;-70
2021/03/10 02:10:16;;;;;;;10.35;7.28;;;2.20;99.30;;;;;;5022210;28;20545;-70
2021/03/10 02:12:47;;;;;;;10.15;6.45;;;2.30;99.40;;;;;;5026383;28;20049;-69
2021/03/10 02:15:24;;;;;;;8.63;6.97;;;2.30;99.50;;;;;;5101935;27;20049;-70
2021/03/10 02:18:01;;;;;;;9.20;6.68;;;2.40;99.50;;;;;;5027939;28;20481;-70
2021/03/10 02:20:33;;;;;;;9.65;7.10;;;2.40;99.40;;;;;;5022054;28;20469;-70
2021/03/10 02:23:33;;;;;;;9.15;5.97;;;2.40;99.70;;;;;;5025523;28;20402;-70
2021/03/10 02:26:24;;;;;;;11.02;6.90;;;2.50;99.50;;;;;;5049043;28;20081;-70
2021/03/10 02:28:54;;;;;;;9.73;6.50;;;2.50;99.50;;;;;;5021070;28;20046;-70
2021/03/10 02:31:21;;;;;;;11.05;7.10;;;2.60;99.50;;;;;;5048909;28;20046;-69
2021/03/10 02:33:48;;;;;;;8.77;6.25;;;2.60;99.60;;;;;;5021514;28;20052;-70
2021/03/10 02:36:15;;;;;;;9.20;6.90;;;2.60;99.60;;;;;;5035444;28;20043;-70
2021/03/10 02:38:45;;;;;;;10.55;6.75;;;2.60;99.60;;;;;;5015592;28;20060;-70
2021/03/10 02:41:12;;;;;;;8.25;6.95;;;2.60;99.70;;;;;;5030468;28;20048;-70
2021/03/10 02:43:39;;;;;;;9.35;7.05;;;2.70;99.80;;;;;;5047358;28;20056;-69
2021/03/10 02:46:06;;;;;;;9.38;7.22;;;2.80;99.80;;;;;;5019366;28;20040;-70
2021/03/10 02:48:34;;;;;;;8.40;6.15;;;2.80;99.80;;;;;;5017810;28;20107;-70
2021/03/10 02:51:02;;;;;;;8.75;6.30;;;2.80;99.80;;;;;;5016067;28;20481;-70
2021/03/10 02:53:30;;;;;;;8.07;6.72;;;2.90;99.80;;;;;;5011983;28;20042;-70
2021/03/10 02:55:57;;;;;;;9.77;6.72;;;2.90;99.80;;;;;;5024915;28;20042;-70
2021/03/10 02:58:23;;;;;;;8.52;7.63;;;2.90;99.80;;;;;;5006484;28;20109;-70
2021/03/10 03:00:50;;;;;;;9.93;7.05;;;2.90;99.80;;;;;;5008843;28;20146;-70
2021/03/10 03:03:16;;;;;;;11.95;6.03;;;3.00;99.80;;;;;;5008168;28;20174;-70
2021/03/10 03:05:42;;;;;;;8.10;6.30;;;3.00;99.80;;;;;;5001641;28;20470;-70
2021/03/10 03:08:12;;;;;;;8.27;6.20;;;2.90;99.70;;;;;;5052731;28;20073;-70
2021/03/10 03:10:41;;;;;;;9.35;6.88;;;2.90;99.80;;;;;;5017971;28;20073;-69
2021/03/10 03:13:15;;;;;;;10.48;7.88;;;3.00;99.80;;;;;;5042389;28;20073;-70
2021/03/10 03:15:43;;;;;;;10.50;8.00;;;3.00;99.90;;;;;;5001150;28;20046;-70
2021/03/10 03:18:11;;;;;;;10.15;7.63;;;3.00;99.90;;;;;;5013496;28;20049;-70
2021/03/10 03:20:37;;;;;;;10.95;9.65;;;3.00;99.80;;;;;;5015183;28;20488;-70
2021/03/10 03:23:05;;;;;;;11.30;9.10;;;3.00;99.80;;;;;;5024391;28;20474;-70
2021/03/10 03:25:39;;;;;;;10.65;9.55;;;3.00;99.80;;;;;;5023373;28;20043;-70
2021/03/10 03:28:09;;;;;;;12.10;9.43;;;3.00;99.70;;;;;;5018723;28;20038;-70
2021/03/10 03:30:37;;;;;;;14.07;12.88;;;3.00;99.70;;;;;;5018665;28;20053;-70
2021/03/10 03:33:09;;;;;;;10.25;9.32;;;3.00;99.70;;;;;;5017547;28;20129;-70
2021/03/10 03:35:37;;;;;;;13.38;12.27;;;2.90;99.60;;;;;;5036026;28;20099;-70
2021/03/10 03:38:04;;;;;;;13.75;12.68;;;2.90;99.60;;;;;;5007946;28;20243;-70
2021/03/10 03:40:31;;;;;;;17.38;16.02;;;2.90;99.60;;;;;;5047973;28;20053;-70
2021/03/10 03:42:58;;;;;;;13.13;12.07;;;2.90;99.50;;;;;;5001889;28;20050;-70
2021/03/10 03:45:24;;;;;;;14.70;13.45;;;2.80;99.50;;;;;;4997123;28;20173;-70
2021/03/10 03:47:52;;;;;;;14.32;12.93;;;2.80;99.50;;;;;;4998888;28;20042;-70
2021/03/10 03:50:19;;;;;;;12.95;11.73;;;2.80;99.50;;;;;;5002506;28;20062;-70
2021/03/10 03:52:45;;;;;;;13.05;11.88;;;2.70;99.50;;;;;;5002411;28;20078;-70
2021/03/10 03:55:13;;;;;;;9.60;8.70;;;2.70;99.60;;;;;;5004852;28;20128;-70
2021/03/10 03:57:39;;;;;;;9.52;8.60;;;2.70;99.60;;;;;;4998669;28;20050;-70
2021/03/10 04:00:12;;;;;;;11.07;9.98;;;2.70;99.60;;;;;;5007032;28;20078;-70
2021/03/10 04:02:39;;;;;;;9.38;8.10;;;2.70;99.70;;;;;;5005120;28;20061;-70
2021/03/10 04:05:06;;;;;;;9.35;8.32;;;2.80;99.80;;;;;;5003381;28;20092;-70
2021/03/10 04:07:33;;;;;;;9.65;7.82;;;2.80;99.80;;;;;;5099636;27;20052;-70
2021/03/10 04:09:59;;;;;;;8.98;7.93;;;2.80;99.70;;;;;;5000528;28;20053;-70
2021/03/10 04:12:25;;;;;;;10.80;8.48;;;2.80;99.70;;;;;;5009863;28;20102;-70
2021/03/10 04:14:51;;;;;;;9.70;7.13;;;2.80;99.70;;;;;;5003732;28;20473;-70
2021/03/10 04:17:18;;;;;;;10.32;6.80;;;2.70;99.60;;;;;;5099566;27;20142;-70
2021/03/10 04:19:45;;;;;;;9.90;7.18;;;2.70;99.60;;;;;;5006692;28;20064;-70
2021/03/10 04:22:11;;;;;;;11.30;8.38;;;2.70;99.70;;;;;;5003496;28;20100;-70
2021/03/10 04:24:37;;;;;;;9.18;7.32;;;2.70;99.70;;;;;;5000419;28;20125;-70
2021/03/10 04:27:04;;;;;;;8.75;7.75;;;2.70;99.70;;;;;;5017386;27;20491;-70
2021/03/10 04:29:32;;;;;;;7.68;6.40;;;2.60;99.70;;;;;;5006353;28;20064;-70
2021/03/10 04:31:59;;;;;;;8.98;7.00;;;2.60;99.70;;;;;;5006877;28;20073;-70
2021/03/10 04:34:25;;;;;;;10.02;7.15;;;2.60;99.70;;;;;;5013340;28;20542;-70
2021/03/10 04:36:51;;;;;;;8.23;6.93;;;2.60;99.70;;;;;;5002533;28;20229;-70
2021/03/10 04:39:17;;;;;;;8.43;7.05;;;2.60;99.80;;;;;;5006562;28;20053;-70
2021/03/10 04:41:44;;;;;;;11.20;7.25;;;2.70;99.90;;;;;;5006008;28;20137;-70
2021/03/10 04:44:10;;;;;;;9.38;6.75;;;2.70;99.80;;;;;;5009698;28;20041;-70
2021/03/10 04:46:36;;;;;;;8.13;7.20;;;2.70;99.80;;;;;;5004094;28;20072;-70
2021/03/10 04:49:03;;;;;;;9.55;6.63;;;2.70;99.80;;;;;;5001401;28;21128;-70
2021/03/10 04:51:29;;;;;;;10.43;9.35;;;2.70;99.90;;;;;;5004237;28;20058;-70
2021/03/10 04:53:55;;;;;;;8.32;7.45;;;2.70;99.90;;;;;;5007917;28;20677;-70
2021/03/10 04:56:21;;;;;;;10.10;7.80;;;2.80;99.90;;;;;;5000338;28;20057;-70
2021/03/10 04:58:47;;;;;;;9.38;7.18;;;2.80;99.90;;;;;;5004849;28;20085;-70
2021/03/10 05:01:13;;;;;;;8.68;6.07;;;2.90;99.90;;;;;;4999209;28;20571;-70
2021/03/10 05:03:40;;;;;;;8.70;6.82;;;2.80;99.90;;;;;;4996370;28;20464;-70
2021/03/10 05:06:06;;;;;;;9.70;7.18;;;2.90;99.90;;;;;;4997647;28;20060;-70
2021/03/10 05:08:50;;;;;;;12.95;8.73;;;2.90;99.90;;;;;;5000445;28;20049;-70
2021/03/10 05:11:16;;;;;;;8.25;7.10;;;2.90;99.90;;;;;;4998035;28;20058;-70
2021/03/10 05:13:43;;;;;;;10.50;9.10;;;3.00;99.90;;;;;;4999909;28;20049;-70
2021/03/10 05:16:10;;;;;;;13.88;8.13;;;3.00;99.90;;;;;;5002061;28;20050;-70
2021/03/10 05:18:37;;;;;;;11.82;8.68;;;3.10;99.90;;;;;;5000535;28;20140;-70
2021/03/10 05:21:04;;;;;;;10.95;7.30;;;3.10;99.90;;;;;;4998559;28;20057;-70
2021/03/10 05:23:30;;;;;;;10.18;7.25;;;3.10;99.90;;;;;;5003097;28;20050;-69
2021/03/10 05:25:57;;;;;;;11.27;7.57;;;3.20;99.90;;;;;;5001638;28;20072;-70
2021/03/10 05:28:23;;;;;;;10.50;7.95;;;3.20;99.90;;;;;;5000702;28;20058;-70
2021/03/10 05:30:49;;;;;;;12.02;7.97;;;3.20;99.90;;;;;;4999878;28;20457;-70
2021/03/10 05:33:15;;;;;;;9.68;7.60;;;3.20;99.90;;;;;;5000114;28;20054;-70
2021/03/10 05:35:42;;;;;;;9.82;6.72;;;3.20;99.90;;;;;;4996408;28;20079;-70
2021/03/10 05:38:08;;;;;;;10.63;7.72;;;3.20;99.90;;;;;;5013755;28;20054;-70
2021/03/10 05:40:34;;;;;;;9.18;6.88;;;3.30;99.90;;;;;;5007742;28;20053;-70
2021/03/10 05:43:01;;;;;;;10.50;7.65;;;3.30;99.90;;;;;;5045046;28;20047;-70
2021/03/10 05:45:27;;;;;;;11.10;8.57;;;3.30;99.90;;;;;;5029817;28;20081;-70
2021/03/10 05:47:54;;;;;;;8.88;7.03;;;3.40;99.90;;;;;;5005603;28;20508;-70
2021/03/10 05:50:20;;;;;;;9.57;8.02;;;3.40;99.90;;;;;;5003690;28;20101;-70
2021/03/10 05:52:48;;;;;;;10.48;8.70;;;3.40;99.90;;;;;;5023567;28;20038;-70
2021/03/10 05:55:16;;;;;;;8.65;6.90;;;3.40;99.90;;;;;;5011399;28;20073;-70
2021/03/10 05:57:43;;;;;;;11.65;7.60;;;3.40;99.90;;;;;;5016672;28;20138;-70
2021/03/10 06:00:14;;;;;;;10.85;7.68;;;3.40;99.90;;;;;;5008138;28;20045;-70
2021/03/10 06:02:42;;;;;;;10.90;8.18;;;3.40;99.90;;;;;;5015397;28;20253;-70
2021/03/10 06:05:22;;;;;;;11.00;7.22;;;3.50;99.90;;;;;;5032634;28;20108;-70
2021/03/10 06:08:02;;;;;;;11.02;7.90;;;3.50;99.90;;;;;;5019856;28;20178;-70
2021/03/10 06:10:42;;;;;;;11.77;7.93;;;3.50;99.90;;;;;;5013267;28;20091;-70
2021/03/10 06:13:24;;;;;;;12.25;9.05;;;3.40;99.90;;;;;;5006471;28;20078;-70
2021/03/10 06:15:52;;;;;;;10.05;7.43;;;3.50;99.90;;;;;;4998950;28;20045;-70
2021/03/10 06:18:32;;;;;;;12.13;7.88;;;3.50;99.90;;;;;;5004796;28;20047;-70
2021/03/10 06:21:18;;;;;;;11.90;8.60;;;3.50;99.90;;;;;;5002880;28;20085;-70
2021/03/10 06:23:55;;;;;;;12.45;8.32;;;3.50;99.90;;;;;;5099854;27;20060;-70
2021/03/10 06:26:28;;;;;;;12.65;8.63;;;3.60;99.90;;;;;;5027829;28;20052;-70
2021/03/10 06:28:56;;;;;;;13.15;9.23;;;3.60;99.90;;;;;;5007013;28;20046;-70
2021/03/10 06:31:31;;;;;;;15.70;9.45;;;3.60;99.90;;;;;;5002804;28;20152;-70
2021/03/10 06:34:05;;;;;;;14.07;9.02;;;3.60;99.90;;;;;;4997541;28;20046;-70
2021/03/10 06:36:38;;;;;;;13.85;9.45;;;3.60;99.90;;;;;;4992419;28;20046;-70
2021/03/10 06:39:07;;;;;;;14.18;9.77;;;3.70;99.90;;;;;;5002566;28;20057;-70
2021/03/10 06:41:39;;;;;;;15.47;9.73;;;3.70;99.90;;;;;;4997451;28;20085;-70
2021/03/10 06:44:17;;;;;;;16.20;10.05;;;3.70;99.90;;;;;;5001707;28;20568;-70
2021/03/10 06:46:57;;;;;;;14.05;9.55;;;3.70;99.90;;;;;;5003366;28;20450;-70
2021/03/10 06:49:25;;;;;;;13.45;10.60;;;3.70;99.90;;;;;;5008309;28;20148;-69
2021/03/10 06:51:53;;;;;;;14.55;11.40;;;3.70;99.90;;;;;;5001793;28;20133;-70
2021/03/10 06:54:21;;;;;;;16.67;11.88;;;3.70;99.90;;;;;;5001994;28;20048;-70
2021/03/10 06:57:00;;;;;;;16.08;10.20;;;3.70;99.90;;;;;;5004260;28;20145;-70
2021/03/10 06:59:26;;;;;;;;;;;3.70;99.90;;;;;;5004970;28;20412;-70
2021/03/10 07:01:53;;;;;;;13.80;9.23;;;3.80;99.90;;;;;;5001677;28;19921;-70
2021/03/10 07:04:20;;;;;;;15.48;10.27;;;3.80;99.90;;;;;;4998643;28;20486;-70
2021/03/10 07:06:49;;;;;;;15.48;11.88;;;3.80;99.90;;;;;;5001490;28;20045;-70
2021/03/10 07:09:17;;;;;;;19.65;12.73;;;3.90;99.90;;;;;;5003150;28;20406;-70
2021/03/10 07:11:45;;;;;;;19.88;12.43;;;3.90;99.90;;;;;;5000506;28;20076;-70
2021/03/10 07:14:14;;;;;;;20.42;12.88;;;4.00;99.90;;;;;;4997624;28;20050;-70
2021/03/10 07:16:41;;;;;;;19.55;12.77;;;4.00;99.90;;;;;;5006433;28;20141;-70
2021/03/10 07:19:10;;;;;;;20.95;13.57;;;4.00;99.90;;;;;;4999888;28;20056;-70
2021/03/10 07:21:50;;;;;;;17.58;13.63;;;4.10;99.90;;;;;;4997703;28;20050;-70
2021/03/10 07:24:40;;;;;;;20.60;13.50;;;4.10;99.90;;;;;;4998890;28;20140;-69
2021/03/10 07:27:09;;;;;;;20.95;12.95;;;4.20;99.90;;;;;;5002037;28;20052;-70
2021/03/10 07:29:37;;;;;;;17.63;12.30;;;4.20;99.90;;;;;;5002016;28;20045;-69
2021/03/10 07:32:06;;;;;;;20.85;14.52;;;4.20;99.90;;;;;;5001533;28;20050;-70
2021/03/10 07:34:34;;;;;;;21.58;13.43;;;4.30;99.90;;;;;;5000963;28;20698;-70
2021/03/10 07:37:12;;;;;;;24.15;12.43;;;4.30;99.90;;;;;;4998893;28;20050;-70
2021/03/10 07:39:38;;;;;;;20.85;12.75;;;4.40;99.90;;;;;;5005984;28;20092;-70
2021/03/10 07:42:09;;;;;;;21.42;13.73;;;4.40;99.90;;;;;;5005234;28;20050;-69
2021/03/10 07:44:35;;;;;;;25.02;15.80;;;4.40;99.90;;;;;;5102813;27;20081;-70
2021/03/10 07:47:08;;;;;;;20.67;12.65;;;4.40;99.90;;;;;;5010111;28;20141;-70
2021/03/10 07:49:36;;;;;;;24.38;14.30;;;4.50;99.90;;;;;;5007545;28;20501;-70
2021/03/10 07:52:06;;;;;;;29.33;14.32;;;4.50;99.90;;;;;;5006216;28;20068;-70
2021/03/10 07:54:34;;;;;;;23.63;12.95;;;4.50;99.90;;;;;;5010575;28;20157;-69
2021/03/10 07:57:05;;;;;;;25.05;14.10;;;4.60;99.90;;;;;;5008130;28;20095;-69
2021/03/10 07:59:31;;;;;;;26.20;14.18;;;4.60;99.90;;;;;;5003825;28;20141;-70
2021/03/10 08:02:03;;;;;;;25.90;14.95;;;4.60;99.90;;;;;;5004426;28;20141;-69
2021/03/10 08:04:29;;;;;;;27.77;14.73;;;4.60;99.90;;;;;;5005269;28;21447;-70
2021/03/10 08:07:00;;;;;;;27.13;16.10;;;4.70;99.90;;;;;;5005616;28;20060;-70
2021/03/10 08:09:28;;;;;;;25.98;15.00;;;4.70;99.90;;;;;;5005457;28;20077;-70
2021/03/10 08:12:07;;;;;;;30.58;17.25;;;4.70;99.90;;;;;;5002949;28;20095;-70
2021/03/10 08:14:42;;;;;;;36.03;29.00;;;4.80;99.90;;;;;;5005990;28;20054;-69
2021/03/10 08:17:09;;;;;;;31.52;17.35;;;4.80;99.90;;;;;;5001953;28;20056;-70
2021/03/10 08:19:36;;;;;;;32.70;17.13;;;4.90;99.90;;;;;;5005235;28;20080;-69
2021/03/10 08:22:03;;;;;;;31.73;17.10;;;4.90;99.90;;;;;;5002722;28;20061;-69
2021/03/10 08:24:29;;;;;;;31.73;18.48;;;4.90;99.90;;;;;;5002560;28;20144;-70
2021/03/10 08:26:58;;;;;;;34.90;20.65;;;5.00;99.90;;;;;;5002994;28;20048;-69
2021/03/10 08:29:26;;;;;;;32.45;18.33;;;5.00;99.90;;;;;;4997316;28;20205;-70
2021/03/10 08:31:57;;;;;;;33.40;18.23;;;5.00;99.90;;;;;;5000650;28;20042;-70
2021/03/10 08:34:38;;;;;;;29.77;17.52;;;5.10;99.90;;;;;;4999227;28;20497;-69
2021/03/10 08:37:06;;;;;;;35.30;18.48;;;5.10;99.90;;;;;;5001248;28;20045;-70
2021/03/10 08:39:44;;;;;;;34.35;18.23;;;5.20;99.90;;;;;;5008912;28;20563;-70
2021/03/10 08:42:11;;;;;;;33.10;17.77;;;5.20;99.90;;;;;;4997377;28;20085;-70
2021/03/10 08:44:43;;;;;;;33.60;19.10;;;5.30;99.90;;;;;;4999647;28;20045;-69
2021/03/10 08:47:36;;;;;;;37.35;21.25;;;5.30;99.90;;;;;;5008378;28;20046;-70
2021/03/10 08:50:03;;;;;;;33.92;19.38;;;5.30;99.90;;;;;;5000801;28;20061;-70
2021/03/10 08:52:30;;;;;;;33.80;19.50;;;5.40;99.90;;;;;;5010714;28;20458;-70
2021/03/10 08:55:02;;;;;;;32.65;18.67;;;5.40;99.90;;;;;;5004652;28;20136;-70
2021/03/10 08:57:32;;;;;;;35.35;19.92;;;5.50;99.90;;;;;;5001663;28;20053;-70
2021/03/10 08:59:59;;;;;;;36.92;20.20;;;5.50;99.90;;;;;;5005488;28;20079;-70
2021/03/10 09:02:31;;;;;;;34.03;19.67;;;5.50;99.90;;;;;;5000855;28;20058;-70
2021/03/10 09:04:59;;;;;;;41.47;19.58;;;5.60;99.90;;;;;;5004639;28;20140;-69
2021/03/10 09:07:27;;;;;;;35.97;19.75;;;5.60;99.90;;;;;;5012999;28;20115;-69
2021/03/10 09:09:57;;;;;;;35.67;20.35;;;5.70;99.90;;;;;;5015627;28;20136;-70
2021/03/10 09:12:24;;;;;;;29.40;18.90;;;5.70;99.90;;;;;;5013887;28;20046;-69
2021/03/10 09:14:50;;;;;;;33.03;20.25;;;5.80;99.90;;;;;;5011554;28;20126;-70
2021/03/10 09:17:17;;;;;;;39.00;23.42;;;5.80;99.90;;;;;;5008572;28;20069;-70
2021/03/10 09:19:47;;;;;;;35.58;21.48;;;5.90;99.90;;;;;;5008325;28;20060;-69
2021/03/10 09:22:22;;;;;;;38.25;21.15;;;5.90;99.90;;;;;;5011133;28;20059;-70
2021/03/10 09:25:07;;;;;;;30.92;18.70;;;5.90;99.90;;;;;;5006549;28;20063;-70
2021/03/10 09:27:33;;;;;;;42.97;23.48;;;6.00;99.90;;;;;;5002064;28;20051;-70
2021/03/10 09:30:13;;;;;;;37.08;22.05;;;6.00;99.90;;;;;;5009812;28;20427;-70
2021/03/10 09:32:48;;;;;;;31.65;18.55;;;6.10;99.90;;;;;;5005219;28;20391;-70
2021/03/10 09:35:20;;;;;;;28.65;17.98;;;6.10;99.90;;;;;;5005082;28;20042;-69
2021/03/10 09:37:52;;;;;;;33.53;19.25;;;6.20;99.90;;;;;;5003306;28;20157;-70
2021/03/10 09:40:20;;;;;;;33.28;19.95;;;6.20;99.90;;;;;;5010601;28;20046;-70
2021/03/10 09:43:01;;;;;;;33.63;26.02;;;6.20;99.90;;;;;;5003358;28;20449;-70
2021/03/10 09:45:30;;;;;;;37.45;33.80;;;6.30;99.90;;;;;;5004915;28;20069;-70
2021/03/10 09:48:06;;;;;;;35.85;31.88;;;6.40;99.90;;;;;;5006418;28;20046;-70
2021/03/10 09:50:39;;;;;;;37.15;33.25;;;6.40;99.90;;;;;;5001036;28;20410;-68
2021/03/10 09:53:15;;;;;;;36.58;32.67;;;6.40;99.90;;;;;;5004857;28;20042;-68
2021/03/10 09:55:41;;;;;;;38.28;32.13;;;6.50;99.90;;;;;;5001674;28;20050;-70
2021/03/10 09:58:10;;;;;;;44.00;33.60;;;6.60;99.90;;;;;;5011127;28;20056;-69
2021/03/10 10:00:37;;;;;;;48.70;43.17;;;6.60;99.90;;;;;;5005943;28;20050;-70
2021/03/10 10:03:05;;;;;;;41.58;35.97;;;6.70;99.90;;;;;;5004039;28;20136;-69
2021/03/10 10:05:36;;;;;;;45.50;34.58;;;6.80;99.90;;;;;;5005287;28;20060;-70
2021/03/10 10:08:05;;;;;;;42.58;37.50;;;6.80;99.90;;;;;;5004997;28;20159;-69
2021/03/10 10:10:34;;;;;;;39.53;35.00;;;6.80;99.90;;;;;;5000822;28;20061;-70
2021/03/10 10:13:01;;;;;;;;;;;6.90;99.90;;;;;;5101150;27;20083;-70
2021/03/10 10:15:32;;;;;;;36.78;32.83;;;7.00;99.90;;;;;;5012360;28;19920;-70
2021/03/10 10:18:03;;;;;;;48.38;40.58;;;7.00;99.90;;;;;;5009684;28;20102;-69
2021/03/10 10:20:31;;;;;;;42.53;38.10;;;7.10;99.90;;;;;;5004705;28;20058;-70
2021/03/10 10:23:01;;;;;;;53.22;48.00;;;7.10;99.90;;;;;;4998643;28;20406;-70
2021/03/10 10:25:31;;;;;;;47.20;42.72;;;7.20;99.90;;;;;;5003142;28;20129;-70
2021/03/10 10:27:58;;;;;;;48.10;43.73;;;7.20;99.90;;;;;;5002922;28;20062;-69
2021/03/10 10:30:25;;;;;;;76.13;69.78;;;7.30;99.90;;;;;;4999130;28;20132;-69
2021/03/10 10:32:51;;;;;;;49.78;44.92;;;7.30;99.90;;;;;;5004352;28;20062;-69
2021/03/10 10:35:19;;;;;;;57.40;52.53;;;7.30;99.90;;;;;;5002941;28;20390;-70
2021/03/10 10:37:46;;;;;;;54.95;50.33;;;7.40;99.90;;;;;;5005143;28;20057;-70
2021/03/10 10:40:17;;;;;;;52.28;47.85;;;7.40;99.90;;;;;;5004104;28;20082;-70
2021/03/10 10:42:51;;;;;;;55.53;50.65;;;7.50;99.90;;;;;;5001541;28;20053;-70
2021/03/10 10:45:18;;;;;;;65.22;59.90;;;7.50;99.90;;;;;;4995660;28;20165;-70
2021/03/10 10:47:45;;;;;;;85.38;78.88;;;7.60;99.90;;;;;;4997353;28;20046;-70
2021/03/10 10:50:13;;;;;;;78.50;72.50;;;7.60;99.90;;;;;;5005341;28;20059;-69
2021/03/10 10:52:41;;;;;;;86.95;80.25;;;7.70;99.90;;;;;;5008730;28;20046;-70
2021/03/10 10:55:10;;;;;;;87.07;80.38;;;7.70;99.90;;;;;;5005573;28;20065;-69
2021/03/10 10:57:36;;;;;;;;;;;7.70;99.90;;;;;;5002061;28;20145;-70
2021/03/10 11:00:09;;;;;;;75.13;69.47;;;7.80;99.90;;;;;;5000744;28;19941;-70
2021/03/10 11:02:36;;;;;;;79.00;73.30;;;7.80;99.90;;;;;;4996750;28;20060;-70
2021/03/10 11:05:05;;;;;;;60.33;55.43;;;7.90;99.90;;;;;;5000992;28;20122;-69
2021/03/10 11:07:31;;;;;;;60.90;56.00;;;7.90;99.90;;;;;;5000047;28;20379;-70
2021/03/10 11:09:58;;;;;;;61.13;56.20;;;8.00;99.90;;;;;;5000115;28;20111;-70
2021/03/10 11:12:25;;;;;;;89.10;82.72;;;8.00;99.90;;;;;;4999833;28;20137;-69
2021/03/10 11:14:51;;;;;;;53.50;48.67;;;8.00;99.90;;;;;;4998969;28;20070;-70
2021/03/10 11:17:17;;;;;;;100.25;93.07;;;8.10;99.90;;;;;;4998316;28;20513;-69
2021/03/10 11:19:43;;;;;;;67.13;61.70;;;8.10;99.90;;;;;;5003960;28;20058;-70
2021/03/10 11:22:10;;;;;;;56.38;51.83;;;8.20;99.90;;;;;;4995976;28;20434;-70
2021/03/10 11:24:37;;;;;;;63.30;58.22;;;8.20;99.90;;;;;;5000098;28;20556;-70
2021/03/10 11:27:03;;;;;;;86.82;80.95;;;8.30;99.90;;;;;;5000768;28;20511;-69
2021/03/10 11:29:30;;;;;;;91.15;84.60;;;8.40;99.90;;;;;;5002572;28;20130;-70
2021/03/10 11:31:56;;;;;;;108.63;101.25;;;8.40;99.90;;;;;;4998543;28;20138;-70
2021/03/10 11:34:23;;;;;;;137.05;128.02;;;8.40;99.90;;;;;;5003735;28;20050;-70
2021/03/10 11:36:49;;;;;;;90.90;84.65;;;8.40;99.90;;;;;;4998320;28;20697;-70
2021/03/10 11:39:16;;;;;;;62.17;57.20;;;8.40;99.90;;;;;;4996006;28;20057;-70
2021/03/10 11:41:43;;;;;;;73.70;68.22;;;8.50;99.90;;;;;;4999111;28;20476;-70
2021/03/10 11:44:09;;;;;;;118.63;110.25;;;8.60;99.90;;;;;;5003756;28;20078;-70
2021/03/10 11:46:36;;;;;;;80.72;74.75;;;8.60;99.90;;;;;;4996963;28;20519;-70
2021/03/10 11:49:04;;;;;;;76.55;70.82;;;8.70;99.90;;;;;;4998739;28;20147;-70
2021/03/10 11:51:31;;;;;;;84.00;77.57;;;8.70;99.90;;;;;;5000045;28;20452;-69
2021/03/10 11:53:58;;;;;;;83.30;76.80;;;8.70;99.90;;;;;;4999989;28;20050;-70
2021/03/10 11:56:25;;;;;;;69.43;63.80;;;8.80;99.90;;;;;;5004877;28;20054;-70
2021/03/10 11:58:51;;;;;;;85.80;79.65;;;8.80;99.90;;;;;;5000954;28;20060;-69
2021/03/10 12:01:17;;;;;;;131.57;122.55;;;8.90;99.90;;;;;;4994359;28;20056;-70
2021/03/10 12:03:45;;;;;;;80.40;74.53;;;9.00;99.90;;;;;;4996093;28;20050;-70
2021/03/10 12:06:11;;;;;;;79.63;73.83;;;9.10;99.90;;;;;;4993508;28;20051;-70
2021/03/10 12:08:38;;;;;;;127.60;118.95;;;9.20;99.90;;;;;;4993704;28;20057;-70
2021/03/10 12:11:04;;;;;;;120.03;111.70;;;9.30;99.90;;;;;;4991642;28;20054;-70
2021/03/10 12:13:31;;;;;;;97.32;89.95;;;9.30;99.90;;;;;;4990436;28;20046;-69
2021/03/10 12:15:58;;;;;;;63.95;58.80;;;9.30;99.90;;;;;;4991483;28;20042;-70
2021/03/10 12:18:36;;;;;;;133.43;123.63;;;9.40;99.90;;;;;;4993886;28;20637;-70
2021/03/10 12:21:05;;;;;;;73.82;68.07;;;9.50;99.90;;;;;;4995650;28;20054;-70
2021/03/10 12:23:33;;;;;;;80.68;75.05;;;9.50;99.90;;;;;;4993522;28;20151;-70
2021/03/10 12:26:00;;;;;;;171.32;158.20;;;9.60;99.90;;;;;;4992969;28;20119;-70
2021/03/10 12:28:27;;;;;;;91.50;84.80;;;9.60;99.90;;;;;;4998707;28;20094;-71
2021/03/10 12:30:54;;;;;;;68.07;62.65;;;9.70;99.90;;;;;;4994858;28;20045;-70
2021/03/10 12:33:20;;;;;;;65.32;60.45;;;9.70;99.90;;;;;;4995319;28;20072;-70
2021/03/10 12:35:47;;;;;;;80.70;74.68;;;9.80;99.90;;;;;;4998638;28;20618;-70
2021/03/10 12:38:13;;;;;;;117.60;109.57;;;9.90;99.90;;;;;;4993234;28;20605;-70
2021/03/10 12:40:50;;;;;;;142.32;132.48;;;9.90;99.90;;;;;;5010015;27;20060;-70
2021/03/10 12:43:16;;;;;;;136.63;126.93;;;9.90;99.90;;;;;;4992273;28;20037;-70
2021/03/10 12:45:42;;;;;;;82.85;77.20;;;9.90;99.90;;;;;;4993856;28;20054;-70
2021/03/10 12:48:09;;;;;;;147.13;137.80;;;9.90;99.90;;;;;;4997722;28;20386;-70
2021/03/10 12:50:35;;;;;;;99.35;92.97;;;9.90;99.90;;;;;;5004467;28;20050;-70
2021/03/10 12:53:02;;;;;;;125.72;117.70;;;9.80;99.90;;;;;;5005342;28;20053;-70